createdAt,value
2022-08-09T00:05:03.240Z,16.03
2022-08-09T00:07:46.127Z,16.12
2022-08-09T00:10:21.147Z,16.26
2022-08-09T00:12:51.619Z,16.21
2022-08-09T00:15:20.207Z,16.13
2022-08-09T00:18:05.442Z,16.24
2022-08-09T00:20:41.392Z,16.21
2022-08-09T00:28:18.900Z,15.74
2022-08-09T00:30:45.471Z,15.54
2022-08-09T00:33:12.262Z,15.24
2022-08-09T00:35:42.831Z,14.88
2022-08-09T00:38:15.260Z,14.87
2022-08-09T00:40:52.591Z,14.85
2022-08-09T00:44:15.691Z,14.94
2022-08-09T00:52:44.823Z,15.61
2022-08-09T00:55:32.910Z,15.76
2022-08-09T00:57:59.280Z,15.68
2022-08-09T01:00:27.367Z,15.69
2022-08-09T01:03:04.823Z,15.69
2022-08-09T01:05:51.549Z,15.47
2022-08-09T01:16:16.943Z,15.34
2022-08-09T01:18:47.604Z,15.45
2022-08-09T01:21:45.109Z,15.43
2022-08-09T01:24:34.686Z,15.55
2022-08-09T01:27:07.792Z,15.36
2022-08-09T01:29:55.766Z,15.17
2022-08-09T01:38:05.620Z,15.17
2022-08-09T01:40:23.241Z,14.96
2022-08-09T01:42:56.370Z,14.93
2022-08-09T01:45:24.163Z,14.92
2022-08-09T01:47:52.328Z,14.82
2022-08-09T01:50:36.424Z,14.92
2022-08-09T01:53:19.825Z,14.86
2022-08-09T02:00:53.078Z,14.96
2022-08-09T02:03:21.441Z,15.12
2022-08-09T02:06:03.686Z,15.13
2022-08-09T02:08:57.062Z,15.13
2022-08-09T02:11:22.117Z,15.09
2022-08-09T02:14:06.409Z,15.10
2022-08-09T02:17:00.109Z,14.97
2022-08-09T02:24:34.771Z,14.63
2022-08-09T02:27:05.313Z,14.65
2022-08-09T02:29:38.804Z,14.60
2022-08-09T02:32:09.083Z,14.62
2022-08-09T02:34:40.923Z,14.64
2022-08-09T02:37:16.248Z,14.65
2022-08-09T02:39:55.365Z,14.54
2022-08-09T02:47:33.900Z,14.84
2022-08-09T02:50:24.358Z,14.81
2022-08-09T02:52:56.309Z,14.87
2022-08-09T02:55:46.260Z,14.90
2022-08-09T02:58:35.808Z,14.88
2022-08-09T03:01:04.331Z,14.83
2022-08-09T03:11:29.655Z,14.37
2022-08-09T03:14:09.969Z,14.19
2022-08-09T03:16:41.654Z,14.23
2022-08-09T03:19:16.657Z,14.27
2022-08-09T03:21:57.991Z,14.28
2022-08-09T03:24:42.669Z,14.39
2022-08-09T03:27:17.170Z,14.43
2022-08-09T03:34:54.127Z,14.59
2022-08-09T03:37:54.306Z,14.59
2022-08-09T03:40:13.046Z,14.63
2022-08-09T03:42:39.944Z,14.61
2022-08-09T03:45:10.559Z,14.52
2022-08-09T03:47:40.210Z,14.57
2022-08-09T03:50:11.984Z,14.69
2022-08-09T03:55:49.829Z,14.59
2022-08-09T03:58:20.915Z,14.67
2022-08-09T04:00:49.177Z,14.63
2022-08-09T04:03:24.741Z,14.68
2022-08-09T04:06:04.751Z,14.60
2022-08-09T04:08:31.364Z,14.56
2022-08-09T04:11:01.702Z,14.46
2022-08-09T04:18:28.227Z,14.39
2022-08-09T04:20:54.929Z,14.26
2022-08-09T04:23:24.370Z,14.15
2022-08-09T04:25:53.048Z,14.14
2022-08-09T04:28:32.963Z,14.08
2022-08-09T04:31:05.703Z,14.20
2022-08-09T04:33:52.204Z,14.10
2022-08-09T04:41:32.608Z,14.33
2022-08-09T04:44:06.788Z,14.51
2022-08-09T04:46:57.498Z,14.30
2022-08-09T04:49:40.831Z,14.41
2022-08-09T04:52:09.999Z,14.49
2022-08-09T04:54:36.707Z,14.58
2022-08-09T04:57:04.735Z,14.57
2022-08-09T05:04:39.759Z,14.79
2022-08-09T05:07:07.311Z,14.91
2022-08-09T05:09:50.072Z,14.91
2022-08-09T05:12:17.080Z,15.07
2022-08-09T05:14:43.614Z,15.24
2022-08-09T05:17:15.290Z,15.41
2022-08-09T05:19:58.816Z,15.47
2022-08-09T05:25:06.997Z,15.57
2022-08-09T05:27:45.616Z,15.69
2022-08-09T05:30:14.852Z,15.73
2022-08-09T05:32:43.537Z,15.83
2022-08-09T05:35:10.582Z,15.91
2022-08-09T05:37:38.129Z,16.15
2022-08-09T05:40:15.144Z,16.36
2022-08-09T05:47:53.081Z,16.81
2022-08-09T05:50:44.018Z,16.78
2022-08-09T05:53:31.596Z,16.97
2022-08-09T05:55:58.968Z,17.13
2022-08-09T05:58:25.460Z,17.12
2022-08-09T06:00:53.337Z,17.14
2022-08-09T06:06:09.566Z,17.02
2022-08-09T06:08:39.138Z,17.05
2022-08-09T06:11:16.567Z,17.16
2022-08-09T06:13:44.720Z,16.98
2022-08-09T06:16:14.014Z,17.09
2022-08-09T06:18:42.773Z,17.13
2022-08-09T06:21:11.080Z,17.25
2022-08-09T06:28:43.349Z,17.48
2022-08-09T06:31:10.329Z,17.53
2022-08-09T06:33:41.684Z,17.71
2022-08-09T06:36:08.897Z,17.74
2022-08-09T06:38:37.709Z,17.85
2022-08-09T06:41:05.217Z,17.98
2022-08-09T06:43:46.252Z,18.22
2022-08-09T06:53:55.149Z,18.46
2022-08-09T06:56:21.886Z,18.46
2022-08-09T07:00:53.931Z,18.55
2022-08-09T07:01:54.229Z,18.57
2022-08-09T07:04:24.749Z,18.76
2022-08-09T07:06:59.872Z,18.94
2022-08-09T07:09:56.022Z,19.07
2022-08-09T07:17:18.712Z,19.36
2022-08-09T07:19:47.918Z,19.51
2022-08-09T07:22:18.063Z,19.53
2022-08-09T07:24:49.495Z,19.59
2022-08-09T07:27:27.009Z,19.70
2022-08-09T07:30:01.956Z,19.91
2022-08-09T07:32:34.276Z,20.01
2022-08-09T07:37:44.447Z,20.12
2022-08-09T07:40:16.582Z,20.14
2022-08-09T07:42:48.779Z,19.99
2022-08-09T07:45:37.513Z,20.13
2022-08-09T07:48:04.291Z,20.33
2022-08-09T07:50:32.983Z,20.23
2022-08-09T07:53:04.745Z,20.32
2022-08-09T08:00:35.764Z,20.95
2022-08-09T08:03:04.528Z,21.10
2022-08-09T08:05:53.609Z,21.24
2022-08-09T08:09:00.596Z,21.41
2022-08-09T08:12:09.714Z,21.43
2022-08-09T08:13:56.562Z,21.60
2022-08-09T08:19:05.148Z,21.86
2022-08-09T08:21:31.706Z,21.92
2022-08-09T08:24:01.349Z,21.68
2022-08-09T08:26:42.142Z,21.70
2022-08-09T08:29:27.473Z,21.66
2022-08-09T08:32:03.705Z,21.83
2022-08-09T08:34:34.325Z,21.91
2022-08-09T08:42:06.561Z,22.26
2022-08-09T08:44:36.089Z,22.37
2022-08-09T08:47:12.526Z,22.41
2022-08-09T08:49:47.916Z,22.60
2022-08-09T08:52:52.883Z,22.34
2022-08-09T08:55:05.931Z,22.39
2022-08-09T08:57:35.377Z,22.33
2022-08-09T09:05:03.102Z,22.56
2022-08-09T09:07:36.780Z,22.23
2022-08-09T09:10:09.076Z,22.17
2022-08-09T09:12:36.637Z,22.37
2022-08-09T09:15:06.376Z,22.55
2022-08-09T09:17:46.434Z,22.88
2022-08-09T09:20:17.263Z,23.03
2022-08-09T09:28:05.766Z,23.21
2022-08-09T09:30:51.007Z,23.46
2022-08-09T09:33:17.977Z,23.52
2022-08-09T09:36:02.356Z,23.61
2022-08-09T09:38:44.892Z,23.72
2022-08-09T09:41:12.097Z,23.82
2022-08-09T09:50:23.057Z,23.61
2022-08-09T09:52:53.764Z,23.55
2022-08-09T09:55:28.000Z,23.73
2022-08-09T09:58:19.048Z,23.75
2022-08-09T10:00:54.545Z,23.75
2022-08-09T10:03:40.100Z,23.69
2022-08-09T10:06:08.386Z,23.86
2022-08-09T10:13:45.223Z,23.93
2022-08-09T10:16:57.179Z,23.77
2022-08-09T10:19:00.467Z,24.07
2022-08-09T10:21:28.715Z,24.46
2022-08-09T10:23:57.303Z,24.16
2022-08-09T10:26:26.835Z,24.36
2022-08-09T10:29:31.664Z,24.11
2022-08-09T10:36:45.254Z,24.21
2022-08-09T10:39:14.219Z,24.34
2022-08-09T10:41:44.895Z,24.42
2022-08-09T10:44:11.570Z,24.24
2022-08-09T10:47:00.925Z,24.47
2022-08-09T10:49:50.257Z,24.79
2022-08-09T10:56:23.344Z,25.04
2022-08-09T10:58:50.310Z,25.26
2022-08-09T11:03:14.370Z,25.21
2022-08-09T11:04:31.339Z,25.30
2022-08-09T11:07:27.912Z,25.41
2022-08-09T11:10:14.667Z,25.12
2022-08-09T11:20:42.033Z,25.69
2022-08-09T11:23:10.666Z,25.62
2022-08-09T11:25:49.270Z,25.76
2022-08-09T11:28:56.723Z,25.85
2022-08-09T11:31:52.752Z,26.14
2022-08-09T11:34:41.001Z,25.96
2022-08-09T11:42:14.978Z,26.31
2022-08-09T11:44:47.329Z,26.34
2022-08-09T11:47:15.612Z,26.14
2022-08-09T11:50:56.945Z,25.90
2022-08-09T11:53:58.758Z,25.67
2022-08-09T11:56:34.388Z,26.42
2022-08-09T12:03:54.776Z,26.52
2022-08-09T12:06:15.712Z,25.58
2022-08-09T12:08:49.976Z,26.22
2022-08-09T12:11:18.722Z,26.61
2022-08-09T12:14:10.135Z,26.43
2022-08-09T12:16:37.961Z,26.27
2022-08-09T12:21:50.385Z,26.74
2022-08-09T12:24:22.020Z,27.09
2022-08-09T12:28:59.035Z,27.23
2022-08-09T12:29:43.892Z,27.04
2022-08-09T12:32:26.050Z,27.37
2022-08-09T12:35:02.695Z,27.21
2022-08-09T12:37:44.192Z,27.37
2022-08-09T12:45:33.855Z,27.89
2022-08-09T12:48:04.778Z,27.08
2022-08-09T12:50:31.735Z,27.39
2022-08-09T12:53:17.911Z,27.43
2022-08-09T12:56:15.385Z,27.22
2022-08-09T12:58:31.942Z,27.66
2022-08-09T13:01:04.742Z,27.22
2022-08-09T13:08:39.671Z,27.75
2022-08-09T13:11:13.107Z,27.44
2022-08-09T13:14:41.349Z,26.66
2022-08-09T13:16:40.278Z,27.34
2022-08-09T13:19:25.578Z,27.69
2022-08-09T13:22:35.262Z,27.35
2022-08-09T13:25:04.348Z,27.54
2022-08-09T13:32:45.898Z,27.95
2022-08-09T13:35:18.974Z,27.50
2022-08-09T13:37:52.393Z,27.86
2022-08-09T13:41:31.192Z,27.78
2022-08-09T13:43:10.050Z,28.23
2022-08-09T13:46:44.397Z,28.44
2022-08-09T13:48:30.011Z,28.62
2022-08-09T13:56:00.067Z,27.59
2022-08-09T13:58:26.867Z,27.65
2022-08-09T14:00:54.871Z,27.94
2022-08-09T14:04:04.841Z,28.35
2022-08-09T14:06:14.752Z,28.12
2022-08-09T14:08:46.360Z,27.90
2022-08-09T14:11:16.361Z,27.87
2022-08-09T14:18:49.428Z,28.08
2022-08-09T14:21:18.359Z,27.94
2022-08-09T14:23:53.684Z,28.07
2022-08-09T14:26:22.551Z,28.17
2022-08-09T14:28:52.721Z,28.03
2022-08-09T14:31:19.233Z,27.93
2022-08-09T14:33:54.476Z,28.02
2022-08-09T14:41:39.585Z,28.26
2022-08-09T14:44:11.140Z,28.25
2022-08-09T14:46:54.647Z,28.38
2022-08-09T14:49:24.891Z,28.38
2022-08-09T14:51:51.628Z,28.54
2022-08-09T14:54:27.854Z,28.53
2022-08-09T14:56:58.832Z,28.56
2022-08-09T15:03:36.389Z,28.41
2022-08-09T15:06:03.956Z,28.49
2022-08-09T15:08:30.945Z,28.63
2022-08-09T15:11:01.670Z,28.38
2022-08-09T15:13:56.531Z,28.69
2022-08-09T15:16:19.258Z,27.95
2022-08-09T15:21:57.974Z,27.87
2022-08-09T15:24:27.029Z,28.08
2022-08-09T15:26:53.922Z,28.26
2022-08-09T15:30:59.835Z,28.21
2022-08-09T15:32:29.822Z,28.15
2022-08-09T15:34:54.408Z,28.25
2022-08-09T15:38:10.721Z,28.30
2022-08-09T15:45:29.551Z,28.15
2022-08-09T15:48:05.462Z,28.23
2022-08-09T15:50:34.552Z,28.34
2022-08-09T15:53:17.710Z,28.27
2022-08-09T15:56:04.357Z,28.57
2022-08-09T15:58:32.898Z,28.45
2022-08-09T16:01:00.852Z,28.15
2022-08-09T16:08:31.644Z,27.68
2022-08-09T16:10:59.294Z,27.86
2022-08-09T16:14:03.347Z,27.83
2022-08-09T16:16:17.300Z,27.87
2022-08-09T16:18:45.587Z,27.76
2022-08-09T16:21:12.735Z,27.92
2022-08-09T16:23:54.873Z,27.74
2022-08-09T16:31:16.105Z,27.87
2022-08-09T16:33:43.375Z,27.98
2022-08-09T16:36:14.514Z,28.10
2022-08-09T16:38:45.310Z,27.58
2022-08-09T16:41:20.851Z,27.33
2022-08-09T16:43:50.140Z,27.14
2022-08-09T16:46:21.281Z,27.47
2022-08-09T16:54:22.443Z,27.28
2022-08-09T16:56:48.917Z,27.14
2022-08-09T16:59:16.237Z,27.36
2022-08-09T17:01:50.492Z,27.46
2022-08-09T17:04:26.093Z,27.29
2022-08-09T17:08:43.458Z,27.25
2022-08-09T17:12:23.222Z,27.03
2022-08-09T17:14:54.973Z,26.94
2022-08-09T17:17:27.378Z,26.95
2022-08-09T17:20:33.262Z,26.94
2022-08-09T17:22:52.102Z,27.00
2022-08-09T17:25:19.786Z,26.93
2022-08-09T17:30:28.528Z,26.47
2022-08-09T17:33:05.119Z,26.46
2022-08-09T17:35:33.782Z,26.34
2022-08-09T17:38:02.794Z,26.24
2022-08-09T17:40:39.383Z,26.17
2022-08-09T17:43:33.054Z,26.04
2022-08-09T17:48:39.720Z,25.65
2022-08-09T17:51:17.313Z,25.43
2022-08-09T17:53:52.035Z,25.25
2022-08-09T17:56:21.713Z,25.05
2022-08-09T17:58:48.315Z,24.92
2022-08-09T18:01:15.572Z,24.77
2022-08-09T18:03:51.176Z,24.69
2022-08-09T18:11:21.067Z,24.39
2022-08-09T18:13:56.566Z,24.52
2022-08-09T18:16:30.389Z,24.34
2022-08-09T18:18:59.528Z,24.19
2022-08-09T18:21:31.904Z,23.98
2022-08-09T18:24:14.334Z,23.75
2022-08-09T18:26:46.279Z,23.53
2022-08-09T18:33:34.299Z,23.17
2022-08-09T18:36:00.891Z,23.00
2022-08-09T18:38:27.721Z,22.90
2022-08-09T18:40:54.787Z,22.83
2022-08-09T18:43:24.791Z,22.82
2022-08-09T18:46:46.809Z,22.70
2022-08-09T18:48:42.323Z,22.65
2022-08-09T18:56:15.211Z,22.43
2022-08-09T18:58:42.436Z,22.36
2022-08-09T19:01:11.679Z,22.31
2022-08-09T19:03:54.649Z,22.22
2022-08-09T19:06:25.505Z,22.18
2022-08-09T19:08:55.196Z,22.14
2022-08-09T19:11:37.960Z,22.05
2022-08-09T19:19:21.464Z,21.83
2022-08-09T19:22:05.140Z,21.80
2022-08-09T19:24:38.252Z,21.73
2022-08-09T19:27:20.742Z,21.72
2022-08-09T19:30:20.952Z,21.62
2022-08-09T19:32:35.041Z,21.54
2022-08-09T19:37:54.128Z,21.48
2022-08-09T19:40:21.341Z,21.43
2022-08-09T19:42:49.735Z,21.25
2022-08-09T19:45:17.804Z,21.23
2022-08-09T19:47:45.278Z,21.12
2022-08-09T19:50:48.986Z,21.08
2022-08-09T20:00:43.024Z,21.02
2022-08-09T20:04:10.094Z,21.00
2022-08-09T20:05:56.157Z,21.05
2022-08-09T20:08:34.861Z,20.97
2022-08-09T20:11:04.261Z,20.95
2022-08-09T20:13:32.266Z,20.95
2022-08-09T20:16:34.642Z,20.92
2022-08-09T20:23:54.809Z,20.71
2022-08-09T20:26:21.308Z,20.62
2022-08-09T20:28:49.750Z,20.57
2022-08-09T20:31:16.941Z,20.55
2022-08-09T20:33:44.717Z,20.55
2022-08-09T20:36:11.621Z,20.59
2022-08-09T20:39:01.163Z,20.67
2022-08-09T20:46:01.866Z,20.82
2022-08-09T20:47:53.509Z,20.63
2022-08-09T20:50:48.183Z,20.61
2022-08-09T20:53:35.305Z,20.63
2022-08-09T20:56:02.081Z,20.61
2022-08-09T20:58:32.246Z,20.59
2022-08-09T21:01:33.603Z,20.67
2022-08-09T21:08:55.217Z,20.37
2022-08-09T21:14:08.908Z,20.50
2022-08-09T21:16:35.820Z,20.52
2022-08-09T21:20:17.757Z,20.43
2022-08-09T21:21:57.231Z,20.29
2022-08-09T21:24:28.809Z,20.36
2022-08-09T21:32:03.383Z,20.34
2022-08-09T21:34:33.701Z,20.27
2022-08-09T21:37:00.190Z,20.23
2022-08-09T21:39:28.149Z,20.25
2022-08-09T21:42:10.240Z,20.28
2022-08-09T21:44:37.288Z,20.14
2022-08-09T21:47:08.942Z,20.03
2022-08-09T21:54:38.739Z,19.84
2022-08-09T21:57:06.109Z,19.75
2022-08-09T21:59:52.010Z,19.53
2022-08-09T22:02:19.563Z,19.44
2022-08-09T22:05:16.918Z,19.30
2022-08-09T22:07:52.282Z,19.16
2022-08-09T22:18:12.062Z,18.81
2022-08-09T22:20:39.264Z,18.74
2022-08-09T22:23:10.539Z,18.59
2022-08-09T22:26:07.936Z,18.50
2022-08-09T22:28:32.481Z,18.42
2022-08-09T22:30:59.785Z,18.42
2022-08-09T22:33:37.503Z,18.33
2022-08-09T22:41:17.023Z,18.60
2022-08-09T22:44:01.414Z,18.61
2022-08-09T22:48:17.815Z,18.50
2022-08-09T22:49:17.706Z,18.25
2022-08-09T22:51:49.628Z,18.02
2022-08-09T22:54:23.109Z,18.01
2022-08-09T22:56:56.788Z,17.95
2022-08-09T23:04:27.801Z,17.79
2022-08-09T23:07:17.759Z,17.79
2022-08-09T23:10:04.959Z,17.77
2022-08-09T23:12:31.392Z,17.83
2022-08-09T23:14:58.056Z,17.76
2022-08-09T23:17:24.746Z,17.82
2022-08-09T23:20:06.933Z,17.79
2022-08-09T23:28:53.900Z,17.69
2022-08-09T23:31:20.332Z,17.85
2022-08-09T23:33:46.854Z,17.82
2022-08-09T23:36:13.326Z,17.69
2022-08-09T23:38:48.530Z,17.67
2022-08-09T23:41:27.728Z,17.60
2022-08-09T23:43:55.608Z,17.60
2022-08-09T23:51:25.253Z,17.40
2022-08-09T23:53:52.495Z,17.28
2022-08-09T23:56:52.370Z,17.32
2022-08-09T23:59:08.513Z,17.25
